Tiempo atmosférico en la estación meteorológica de Camaleño, Fuente De, Cantabria (1090 m.)



Fecha
DESCASC
Temp. máxima en grados centígrados (hora)
DESCASC
Temp. mínima en grados centígrados (hora)
DESCASC
Temp. media en grados centígrados
DESCASC
Racha de viento máxima en m/sg (hora)
DESCASC
Velocidad máxima media en intervalos de 10 minutos(hora)
DESCASC
Precipitaciones diarias en mm
DESCASC
Precipitaciones de 00:00 a 06:00 en mm
DESCASC
Precipitaciones de 06:00 a 12:00 en mm
DESCASC
Precipitaciones de 12:00 a 18:00 en mm
DESCASC
Precipitaciones de 18:00 a 24:00 en mm
DESCASC
21-02-2019 13.8 (15:50) 1.9 (00:00) 7.9 10 (07:20) 3.61 (05:10) 0 0 0 0 0
20-02-2019 11.1 (15:40) 1.9 (23:30) 6.5 10.56 (05:20) 4.44 (08:50) 0 0 0 0 0
19-02-2019 9.1 (14:00) 0 (05:30) 4.6 7.5 (15:30) 2.22 (14:20) -- 0.4 -- -- 0
18-02-2019 11.7 (13:10) 0.6 (23:59) 6.1 9.17 (03:40) 3.06 (12:10) 4.2 0 0 0 4.2
17-02-2019 14.1 (16:40) 6.4 (00:00) 10.3 11.67 (03:10) 3.89 (02:10) 0 0 0 0 0
16-02-2019 16.1 (14:40) 3.9 (00:00) 10 9.17 (12:40) 3.61 (11:30) 0 0 0 0 0
15-02-2019 17.9 (13:40) 4.7 (00:00) 11.3 9.17 (00:50) 4.17 (01:30) 0 0 0 0 0
14-02-2019 16.3 (14:20) 4 (00:00) 10.1 8.33 (16:30) 3.61 (12:30) 0 0 0 0 0
13-02-2019 17.2 (15:00) 2.9 (00:00) 10.1 4.44 (13:20) 1.67 (13:20) 0 0 0 0 0
12-02-2019 -- (--) -- (--) -- -- (--) -- (--) -- 0 -- 0 0
11-02-2019 8.7 (15:20) -1.9 (-00:0) 3.4 5.56 (13:00) 1.67 (13:10) 0 0 0 0 0
10-02-2019 9.2 (14:30) 0.2 (00:00) 4.7 13.33 (02:30) 5.28 (02:20) 7.4 0.6 6.8 0 0
09-02-2019 9 (13:40) 3.2 (00:00) 6.1 10.56 (12:50) 4.17 (12:50) 0 0 0 0 0
08-02-2019 12.1 (13:50) 2.4 (00:00) 7.3 11.11 (14:30) 4.17 (14:40) 0 0 0 0 0
07-02-2019 10 (15:40) 1.3 (00:00) 5.6 10.28 (23:50) 3.89 (23:50) 0 0 0 0 0
06-02-2019 12.3 (14:50) 1.9 (00:00) 7.1 9.17 (14:20) 3.89 (14:20) -- -- 0 0 0
05-02-2019 12.1 (14:40) 1.2 (00:00) 6.7 2.78 (04:10) 1.39 (04:10) -- -- -- -- --
04-02-2019 10 (14:20) -4.2 (-00:0) 2.9 9.72 (07:30) 3.33 (07:40) -- -- -- -- --
03-02-2019 5.6 (14:10) -5.6 (-00:0) 0 8.89 (01:40) 3.89 (01:20) -- -- -- -- --
02-02-2019 0 (00:00) -2.6 (-00:0) -1.3 13.61 (06:40) 6.11 (07:50) -- -- -- -- --
01-02-2019 4.6 (00:00) -0.9 (-00:0) 1.8 16.11 (05:30) 4.44 (05:30) -- -- -- -- --
31-01-2019 10 (15:10) 0.6 (00:00) 5.3 11.39 (17:30) 4.17 (17:30) 46.2 22.8 14 6.4 3
30-01-2019 5.3 (13:50) 0.1 (00:00) 2.7 8.61 (00:30) 3.61 (14:00) 16.6 0 0.8 5 10.8
29-01-2019 5.1 (11:00) -0.3 (00:00) 2.4 11.39 (14:10) 4.44 (04:30) 14 0.2 3 10.6 0.2
28-01-2019 5.7 (13:10) 0.3 (00:00) 3 15.28 (14:30) 7.78 (14:10) 21.4 7.2 13 1.2 0
27-01-2019 7.7 (01:00) 0.7 (00:00) 4.2 16.39 (15:30) 7.78 (14:50) 9 1.2 3 4.8 0
26-01-2019 14.3 (14:20) -1.7 (-00:0) 6.3 9.44 (23:59) 2.5 (19:00) 0 0 0 0 0
25-01-2019 10.3 (15:00) -0.2 (00:00) 5.1 7.78 (12:30) 3.89 (12:30) -- -- -- 0.2 0
24-01-2019 8.1 (15:50) 2.1 (00:00) 5.1 12.78 (16:00) 5.83 (15:50) 111.2 52.8 37 20.8 0.6

Gráficas

Temp. máximas Temp. mínimas Temp. medias Precipitaciones Rachas de viento máximas Velocidades máximas media en intervalos de 10 minutos

Datos horarios

Fecha y hora oficial Temperatura (ºC) Velocidad del viento (km/h) Dirección del viento Racha (km/h) Dirección de racha Precipitación (mm) Presión (hPa) Tendencia (hPa) Humedad (%)
2019-02-22 23:00:00 6.7 2 Sur 5 Sudoeste 0 -- -- 35
2019-02-22 22:00:00 6.5 0 Calma 6 Oeste 0 -- -- 33
2019-02-22 21:00:00 7 0 Calma 6 Oeste 0 -- -- 38
2019-02-22 20:00:00 8.2 0 Calma 6 Sudoeste 0 -- -- 38
2019-02-22 19:00:00 10.8 4 Noroeste 17 Sudoeste 0 -- -- 39
2019-02-22 18:00:00 12.8 5 Sudoeste 21 Sudoeste 0 -- -- 29
2019-02-22 17:00:00 15.4 7 Sudoeste 23 Sudoeste 0 -- -- 27
2019-02-22 16:00:00 16.3 11 Sur 34 Sudoeste 0 -- -- 26
2019-02-22 15:00:00 15.6 12 Sur 36 Sur 0 -- -- 24
2019-02-22 14:00:00 15 13 Sudoeste 41 Sudoeste 0 -- -- 26
2019-02-22 13:00:00 14.7 13 Sudoeste 33 Sur 0 -- -- 27
2019-02-22 12:00:00 13.8 15 Sur 35 Sur 0 -- -- 28
2019-02-22 11:00:00 11.5 14 Sudoeste 30 Sudoeste 0 -- -- 34
2019-02-22 10:00:00 9.4 6 Noroeste 23 Sudoeste 0 -- -- 39
2019-02-22 09:00:00 5.7 0 Calma 7 Noroeste 0 -- -- 53
2019-02-22 08:00:00 6.4 0 Calma 20 Sur 0 -- -- 49
2019-02-22 07:00:00 7.6 4 Noroeste 18 Oeste 0 -- -- 42
2019-02-22 06:00:00 8.1 5 Norte 15 Oeste 0 -- -- 43
2019-02-22 05:00:00 8.2 6 Noroeste 23 Sudoeste 0 -- -- 49
2019-02-22 04:00:00 9.5 8 Oeste 27 Sudoeste 0 -- -- 45
2019-02-22 03:00:00 9.7 7 Oeste 17 Oeste 0 -- -- 41
2019-02-22 02:00:00 9.9 9 Noroeste 22 Sudoeste 0 -- -- 42
2019-02-22 01:00:00 9 6 Nordeste 18 Noroeste 0 -- -- 51
2019-02-22 00:00:00 9.9 7 Norte 31 Noroeste 0 -- -- 46
2019-02-21 23:00:00 9.5 6 Oeste 33 Norte 0 -- -- 49
2019-02-21 22:00:00 9.4 10 Nordeste 30 Norte 0 -- -- 51
2019-02-21 21:00:00 9.3 11 Este 23 Este 0 -- -- 49
2019-02-21 20:00:00 8.7 6 Este 20 Este 0 -- -- 49
2019-02-21 19:00:00 8.9 3 Este 12 Nordeste 0 -- -- 49
2019-02-21 18:00:00 10.1 3 Sur 14 Sur 0 -- -- 52
2019-02-21 17:00:00 12.6 5 Este 16 Este 0 -- -- 41
2019-02-21 16:00:00 13.6 5 Sudeste 18 Nordeste 0 -- -- 41
2019-02-21 15:00:00 12.7 7 Este 19 Sur 0 -- -- 44
2019-02-21 14:00:00 12.1 6 Sudoeste 27 Este 0 -- -- 45
2019-02-21 13:00:00 11.6 8 Sur 28 Oeste 0 -- -- 46
2019-02-21 12:00:00 10.8 9 Sur 32 Sudoeste 0 -- -- 48
2019-02-21 11:00:00 8.9 6 Este 29 Sur 0 -- -- 49
2019-02-21 10:00:00 8 13 Sur 32 Sudeste 0 -- -- 51
2019-02-21 09:00:00 6.3 4 Sudoeste 29 Sudoeste 0 -- -- 58
2019-02-21 08:00:00 7.5 8 Sudoeste 36 Oeste 0 -- -- 49
2019-02-21 07:00:00 7.6 9 Oeste 31 Sudoeste 0 -- -- 49
2019-02-21 06:00:00 7.7 12 Sudoeste 32 Oeste 0 -- -- 47
2019-02-21 05:00:00 7.5 12 Sudoeste 28 Sudoeste 0 -- -- 53
2019-02-21 04:00:00 2.8 0 Calma 13 Noroeste 0 -- -- 70
2019-02-21 03:00:00 2.1 3 Sudoeste 9 Sudeste 0 -- -- 71
2019-02-21 02:00:00 2.1 3 Noroeste 7 Oeste 0 -- -- 69
2019-02-21 01:00:00 2.4 2 Sudoeste 10 Sur 0 -- -- 66
2019-02-21 00:00:00 1.9 0 Calma 4 Noroeste 0 -- -- 63
2019-02-20 23:00:00 2 0 Calma 3 Oeste 0 -- -- 71
2019-02-20 22:00:00 2.4 0 Calma -- -- 0 -- -- 73
2019-02-20 21:00:00 3.1 0 Calma 5 Oeste 0 -- -- 74
2019-02-20 20:00:00 5 0 Calma 17 Oeste 0 -- -- 66
2019-02-20 19:00:00 7 6 Sudoeste 19 Oeste 0 -- -- 59
2019-02-20 18:00:00 7.7 7 Noroeste 19 Sudoeste 0 -- -- 53
2019-02-20 17:00:00 9.6 7 Oeste 23 Oeste 0 -- -- 49
2019-02-20 16:00:00 10.7 8 Sudoeste 24 Sur 0 -- -- 46
2019-02-20 15:00:00 10.8 7 Sur 22 Sudeste 0 -- -- 47
2019-02-20 14:00:00 9.9 8 Sudoeste 24 Sudoeste 0 -- -- 49
2019-02-20 13:00:00 9.5 5 Sudeste 19 Noroeste 0 -- -- 48
2019-02-20 12:00:00 8.5 10 Este 31 Sudeste 0 -- -- 53
2019-02-20 11:00:00 6.4 8 Sudeste 24 Sudeste 0 -- -- 59
2019-02-20 10:00:00 6.2 13 Noroeste 35 Noroeste 0 -- -- 57
2019-02-20 09:00:00 5.6 8 Norte 35 Noroeste 0 -- -- 63
2019-02-20 08:00:00 5.1 5 Sur 24 Nordeste 0 -- -- 64
2019-02-20 07:00:00 6 10 Este 28 Norte 0 -- -- 61
2019-02-20 06:00:00 5.5 8 Sur 38 Norte 0 -- -- 64
2019-02-20 05:00:00 4.9 7 Este 24 Este 0 -- -- 66
2019-02-20 04:00:00 4.6 6 Noroeste 23 Noroeste 0 -- -- 67
2019-02-20 03:00:00 3.8 5 Sudoeste 14 Sudeste 0 -- -- 71
2019-02-20 02:00:00 3.8 4 Sudoeste 10 Oeste 0 -- -- 72
2019-02-20 01:00:00 3.6 4 Oeste 15 Noroeste 0 -- -- 78
2019-02-20 00:00:00 4 3 Sudoeste 8 Este 0 -- -- 74
2019-02-19 23:00:00 3.8 4 Noroeste 15 Sur 0 -- -- 77
2019-02-19 22:00:00 4 5 Sudoeste 17 Nordeste 0 -- -- 75
2019-02-19 21:00:00 4.8 6 Sur 21 Este 0 -- -- 70
2019-02-19 20:00:00 4.9 4 Sudoeste 16 Este 0 -- -- 74
2019-02-19 19:00:00 5.7 4 Norte 22 Este 0 -- -- 71
2019-02-19 18:00:00 5.6 3 Noroeste 10 Este 0 -- -- 76
2019-02-19 17:00:00 6.5 3 Sur 17 Nordeste 0 -- -- 71
2019-02-19 16:00:00 6.5 5 Sudeste 27 Este 0 -- -- 69
2019-02-19 15:00:00 7.4 4 Nordeste 26 Este -- -- -- 63
2019-02-19 14:00:00 9.1 4 Sudeste 23 Sur 7 -- -- 60
2019-02-19 13:00:00 7.9 3 Nordeste 12 Este 6.8 -- -- 71
2019-02-19 12:00:00 6.1 0 Calma 8 Nordeste 4.2 -- -- 80
2019-02-19 11:00:00 2.9 2 Noroeste 5 Oeste 1.6 -- -- 93
2019-02-19 10:00:00 1.4 2 Sur 4 Noroeste 0.4 -- -- 99
2019-02-19 09:00:00 0.4 0 Calma 2 Sur 0 -- -- 100
2019-02-19 08:00:00 0.2 0 Calma 4 Noroeste 0.2 -- -- 100
2019-02-19 07:00:00 0.1 0 Calma 4 Este 0 -- -- 100
2019-02-19 06:00:00 0.1 0 Calma 4 Este 0 -- -- 100
2019-02-19 05:00:00 0.1 0 Calma 5 Sur 0 -- -- 99
2019-02-19 04:00:00 0.2 0 Calma 3 Norte 0 -- -- 99
2019-02-19 03:00:00 0.2 0 Calma 0 Calma 0.2 -- -- 98
2019-02-19 02:00:00 0.3 0 Calma 0 Calma 0 -- -- 98
2019-02-19 01:00:00 0.3 0 Calma -- -- 0.2 -- -- 97
2019-02-19 00:00:00 0.6 0 Calma 0 Calma 0 -- -- 95
2019-02-18 23:00:00 1.3 0 Calma 8 Oeste 0.8 -- -- 93
2019-02-18 22:00:00 3.2 0 Calma 8 Sudoeste 2.2 -- -- 92
2019-02-18 21:00:00 4.3 5 Sudoeste 14 Sur 1 -- -- 93
2019-02-18 20:00:00 5 5 Sudoeste 8 Sudoeste 0.2 -- -- 95
2019-02-18 19:00:00 5.7 5 Sudoeste 12 Sudoeste 0 -- -- 91
2019-02-18 18:00:00 6.9 6 Oeste 17 Sur 0 -- -- 83
2019-02-18 17:00:00 9.9 5 Este 18 Este 0 -- -- 52
2019-02-18 16:00:00 11 4 Sudeste 19 Sudeste 0 -- -- 48
2019-02-18 15:00:00 11.1 7 Este 26 Sur 0 -- -- 46
2019-02-18 14:00:00 11.1 6 Este 25 Sudoeste 0 -- -- 48
2019-02-18 13:00:00 11.4 6 Sudeste 32 Noroeste 0 -- -- 46
2019-02-18 12:00:00 11 8 Norte 25 Norte 0 -- -- 49
2019-02-18 11:00:00 6.7 4 Sudeste 15 Sudoeste 0 -- -- 77
2019-02-18 10:00:00 4.4 0 Calma 5 Norte 0 -- -- 85
2019-02-18 09:00:00 3.8 0 Calma 9 Sur 0 -- -- 84
2019-02-18 08:00:00 7.2 3 Sudoeste 21 Noroeste 0 -- -- 65
2019-02-18 07:00:00 7 4 Sur 13 Sudoeste 0 -- -- 65
2019-02-18 06:00:00 6.8 2 Sudoeste 17 Sur 0 -- -- 67
2019-02-18 05:00:00 7.7 5 Sudeste 27 Noroeste 0 -- -- 61
2019-02-18 04:00:00 7.3 6 Sudeste 33 Noroeste 0 -- -- 57
2019-02-18 03:00:00 6.7 6 Oeste 22 Nordeste 0 -- -- 58
2019-02-18 02:00:00 6.8 5 Sudeste 14 Nordeste 0 -- -- 57
2019-02-18 01:00:00 7.6 4 Sudeste 24 Noroeste 0 -- -- 47
2019-02-18 00:00:00 8.6 10 Noroeste 19 Noroeste 0 -- -- 41
2019-02-17 23:00:00 8.4 6 Noroeste 26 Noroeste 0 -- -- 42
2019-02-17 22:00:00 7.9 6 Noroeste 16 Noroeste 0 -- -- 45
2019-02-17 21:00:00 6.8 8 Noroeste 14 Noroeste 0 -- -- 45
2019-02-17 20:00:00 6.8 4 Noroeste 10 Noroeste 0 -- -- 51
2019-02-17 19:00:00 7.1 2 Oeste 5 Oeste 0 -- -- 53
2019-02-17 18:00:00 9.9 0 Calma 10 Noroeste 0 -- -- 46
2019-02-17 17:00:00 13.1 2 Sur 9 Noroeste 0 -- -- 36
2019-02-17 16:00:00 13.5 2 Este 9 Este 0 -- -- 36
2019-02-17 15:00:00 12.5 5 Sudoeste 17 Oeste 0 -- -- 37
2019-02-17 14:00:00 12.3 8 Norte 21 Oeste 0 -- -- 35
2019-02-17 13:00:00 13.3 8 Sur 33 Oeste 0 -- -- 30
2019-02-17 12:00:00 12.5 10 Sudeste 33 Sudoeste 0 -- -- 32
2019-02-17 11:00:00 10.8 13 Sudeste 42 Sur 0 -- -- 31
2019-02-17 10:00:00 9.4 11 Sur 37 Sudoeste 0 -- -- 44
2019-02-17 09:00:00 8.8 6 Este 31 Noroeste 0 -- -- 49
2019-02-17 08:00:00 8.7 8 Sudoeste 34 Sudoeste 0 -- -- 48
2019-02-17 07:00:00 8.9 5 Sudeste 24 Sur 0 -- -- 47
2019-02-17 06:00:00 9.1 6 Sudeste 23 Sudoeste 0 -- -- 47
2019-02-17 05:00:00 9.2 7 Sur 23 Oeste 0 -- -- 40
2019-02-17 04:00:00 8.5 4 Sudeste 42 Sudoeste 0 -- -- 43
2019-02-17 03:00:00 10.7 14 Oeste 38 Noroeste 0 -- -- 36
2019-02-17 02:00:00 9.8 8 Norte 37 Noroeste 0 -- -- 41
2019-02-17 01:00:00 10.5 11 Norte 31 Norte 0 -- -- 40
2019-02-17 00:00:00 10.4 6 Noroeste 21 Sur 0 -- -- 42
2019-02-16 23:00:00 10.8 9 Sudeste 27 Sudoeste 0 -- -- 34
2019-02-16 22:00:00 9.3 4 Oeste 17 Sudoeste 0 -- -- 40
2019-02-16 21:00:00 10.3 4 Oeste 18 Oeste 0 -- -- 36
2019-02-16 20:00:00 8.6 4 Noroeste 14 Oeste 0 -- -- 41
2019-02-16 19:00:00 8.3 4 Sudoeste 9 Oeste 0 -- -- 50
2019-02-16 18:00:00 10.4 3 Sudoeste 12 Sur 0 -- -- 43
2019-02-16 17:00:00 14.7 5 Sur 18 Oeste 0 -- -- 31
2019-02-16 16:00:00 15.9 6 Sudeste 20 Sur 0 -- -- 28
2019-02-16 15:00:00 15.9 8 Sudoeste 26 Sudoeste 0 -- -- 26
2019-02-16 14:00:00 16 10 Sur 31 Sur 0 -- -- 23
2019-02-16 13:00:00 15.4 11 Sudoeste 33 Sudoeste 0 -- -- 20
2019-02-16 12:00:00 14.7 10 Sudoeste 29 Sur 0 -- -- 23
2019-02-16 11:00:00 11.4 9 Sur 24 Oeste 0 -- -- 30
2019-02-16 10:00:00 6.6 0 Calma 5 Noroeste 0 -- -- 48
2019-02-16 09:00:00 4.7 0 Calma 5 Oeste 0 -- -- 55
2019-02-16 08:00:00 3.9 0 Calma 6 Oeste 0 -- -- 58
2019-02-16 07:00:00 3.9 2 Sudoeste 4 Sudoeste 0 -- -- 59
2019-02-16 06:00:00 3.9 0 Calma 5 Noroeste 0 -- -- 57
2019-02-16 05:00:00 4.1 0 Calma 4 Sur 0 -- -- 59
2019-02-16 04:00:00 4.2 2 Sudoeste 4 Sudoeste 0 -- -- 66
2019-02-16 03:00:00 4.4 0 Calma 3 Sudoeste 0 -- -- 66
2019-02-16 02:00:00 4.6 0 Calma 4 Oeste 0 -- -- 66
2019-02-16 01:00:00 4.7 0 Calma 6 Oeste 0 -- -- 66
2019-02-16 00:00:00 4.7 2 Sudoeste 4 Sur 0 -- -- 66
2019-02-15 23:00:00 5 0 Calma 5 Oeste 0 -- -- 65
2019-02-15 22:00:00 5.4 0 Calma 4 Oeste 0 -- -- 64
2019-02-15 21:00:00 5.9 0 Calma 3 Sur 0 -- -- 61
2019-02-15 20:00:00 6.4 3 Oeste 5 Oeste 0 -- -- 59
2019-02-15 19:00:00 7.6 2 Sur 4 Sur 0 -- -- 54
2019-02-15 18:00:00 9.4 2 Sur 5 Sur 0 -- -- 47
2019-02-15 17:00:00 14 2 Oeste 12 Sur 0 -- -- 37
2019-02-15 16:00:00 17.7 3 Nordeste 12 Sudeste 0 -- -- 24
2019-02-15 15:00:00 17.9 5 Sudoeste 15 Sudoeste 0 -- -- 25
2019-02-15 14:00:00 17.7 4 Sudeste 12 Sudoeste 0 -- -- 23
2019-02-15 13:00:00 16.7 5 Sudeste 11 Este 0 -- -- 23
2019-02-15 12:00:00 14.9 4 Nordeste 12 Este 0 -- -- 30
2019-02-15 11:00:00 9.2 0 Calma 3 Nordeste 0 -- -- 41
2019-02-15 10:00:00 6.3 0 Calma 2 Norte 0 -- -- 51
2019-02-15 09:00:00 5.1 0 Calma 4 Sur 0 -- -- 54
2019-02-15 08:00:00 5.2 2 Oeste 5 Sudoeste 0 -- -- 51
2019-02-15 07:00:00 5.4 3 Oeste 6 Oeste 0 -- -- 55
2019-02-15 06:00:00 5.2 3 Sudoeste 6 Noroeste 0 -- -- 56
2019-02-15 05:00:00 5.6 0 Calma 6 Noroeste 0 -- -- 57
2019-02-15 04:00:00 6.8 2 Norte 11 Sudoeste 0 -- -- 49
2019-02-15 03:00:00 9.3 6 Sudoeste 27 Sudoeste 0 -- -- 38
2019-02-15 02:00:00 11.5 9 Sudoeste 32 Sudoeste 0 -- -- 28
2019-02-15 01:00:00 10.6 9 Sudoeste 33 Sudoeste 0 -- -- 29
2019-02-15 00:00:00 6.2 3 Oeste 10 Oeste 0 -- -- 47
2019-02-14 23:00:00 6.2 3 Oeste 7 Nordeste 0 -- -- 49
2019-02-14 22:00:00 6.8 3 Noroeste 12 Este 0 -- -- 45
2019-02-14 21:00:00 8.2 2 Oeste 19 Sudoeste 0 -- -- 39
2019-02-14 20:00:00 11.8 9 Sudoeste 19 Oeste 0 -- -- 30
2019-02-14 19:00:00 11.7 6 Sur 25 Sudoeste 0 -- -- 28
2019-02-14 18:00:00 12.9 8 Sudoeste 27 Oeste 0 -- -- 29
2019-02-14 17:00:00 14.2 6 Sudoeste 30 Sudoeste 0 -- -- 29
2019-02-14 16:00:00 15.3 8 Este 28 Este 0 -- -- 25
2019-02-14 15:00:00 15.9 6 Noroeste 23 Noroeste 0 -- -- 24
2019-02-14 14:00:00 16 8 Sudoeste 28 Noroeste 0 -- -- 20
2019-02-14 13:00:00 15.4 11 Oeste 28 Noroeste 0 -- -- 23
2019-02-14 12:00:00 14.5 10 Sudoeste 27 Noroeste 0 -- -- 25
2019-02-14 11:00:00 12.2 8 Oeste 22 Sur 0 -- -- 31
2019-02-14 10:00:00 7 3 Sudoeste 10 Noroeste 0 -- -- 45
2019-02-14 09:00:00 5.1 2 Oeste 5 Oeste 0 -- -- 52
2019-02-14 08:00:00 4.9 3 Oeste 6 Sudoeste 0 -- -- 55
2019-02-14 07:00:00 5.1 0 Calma 5 Sudoeste 0 -- -- 51
2019-02-14 06:00:00 5.1 2 Sur 6 Noroeste 0 -- -- 49
2019-02-14 05:00:00 5.4 3 Sudeste 12 Noroeste 0 -- -- 43
2019-02-14 04:00:00 5.2 4 Oeste 17 Sur 0 -- -- 34
2019-02-14 03:00:00 4.7 3 Sudeste 9 Nordeste 0 -- -- 43
2019-02-14 02:00:00 4.2 0 Calma 7 Oeste 0 -- -- 49
2019-02-14 01:00:00 4.2 0 Calma 6 Oeste 0 -- -- 56
2019-02-14 00:00:00 4.1 2 Oeste 5 Noroeste 0 -- -- 63
2019-02-13 23:00:00 4.2 2 Oeste 5 Noroeste 0 -- -- 63
2019-02-13 22:00:00 4.4 0 Calma 5 Oeste 0 -- -- 60
2019-02-13 21:00:00 4.8 0 Calma 2 Oeste 0 -- -- 60
2019-02-13 20:00:00 5.4 0 Calma 4 Noroeste 0 -- -- 57
2019-02-13 19:00:00 6.5 0 Calma 4 Sur 0 -- -- 53
2019-02-13 18:00:00 8.5 0 Calma 6 Noroeste 0 -- -- 45
2019-02-13 17:00:00 12.9 3 Oeste 10 Este 0 -- -- 32
2019-02-13 16:00:00 16.5 4 Sudeste 12 Sur 0 -- -- 24
2019-02-13 15:00:00 17.2 5 Sur 14 Sur 0 -- -- 19
2019-02-13 14:00:00 16.9 4 Sur 16 Sudoeste 0 -- -- 20
2019-02-13 13:00:00 16.3 3 Sur 8 Sur 0 -- -- 21
2019-02-13 12:00:00 13.6 0 Calma 7 Nordeste 0 -- -- 23
2019-02-13 11:00:00 7.6 0 Calma 4 Este 0 -- -- 34
2019-02-13 10:00:00 4.8 0 Calma 2 Norte 0 -- -- 53
2019-02-13 09:00:00 3.5 0 Calma 5 Oeste 0 -- -- 54
2019-02-13 08:00:00 3.2 0 Calma 5 Oeste 0 -- -- 58
2019-02-13 07:00:00 3.2 2 Oeste 5 Noroeste 0 -- -- 55
2019-02-13 06:00:00 3.1 0 Calma 6 Oeste 0 -- -- 53
2019-02-13 05:00:00 3 3 Oeste 5 Oeste 0 -- -- 54
2019-02-13 04:00:00 3 0 Calma 5 Oeste 0 -- -- 53
2019-02-13 03:00:00 3 0 Calma 4 Oeste 0 -- -- 52
2019-02-13 02:00:00 3.1 0 Calma 5 Oeste 0 -- -- 51
2019-02-13 01:00:00 3.4 0 Calma 5 Oeste 0 -- -- 49
2019-02-13 00:00:00 3.4 0 Calma 5 Oeste 0 -- -- 46
2019-02-12 23:00:00 3.4 0 Calma 5 Oeste 0 -- -- 48
2019-02-12 22:00:00 3.6 0 Calma 5 Oeste 0 -- -- 44
2019-02-12 21:00:00 3.6 3 Oeste 5 Sudoeste 0 -- -- 49
2019-02-12 20:00:00 4.2 0 Calma 5 Oeste 0 -- -- 48
2019-02-12 19:00:00 4.9 2 Sudoeste 4 Sur 0 -- -- 52
2019-02-12 18:00:00 6.1 2 Sur 4 Sur 0 -- -- 47
2019-02-12 17:00:00 9.3 2 Oeste 8 Sur 0 -- -- 39
2019-02-12 16:00:00 14.1 4 Sur 10 Sudoeste 0 -- -- 21
2019-02-12 15:00:00 14.1 3 Sudeste 11 Sur 0 -- -- 19
2019-02-12 14:00:00 13.8 3 Sudoeste 12 Sudoeste 0 -- -- 20
2019-02-12 13:00:00 13.1 3 Sudeste -- -- -- -- -- 21
2019-02-12 12:00:00 -- -- -- -- -- -- -- -- --
2019-02-12 11:00:00 3.8 3 Este 4 Nordeste 0 -- -- 41
2019-02-12 10:00:00 1.9 0 Calma 4 Noroeste 0 -- -- 53
2019-02-12 09:00:00 0.6 0 Calma 4 Oeste 0 -- -- 59
2019-02-12 08:00:00 0.3 2 Oeste 6 Oeste 0 -- -- 56
2019-02-12 07:00:00 0 0 Calma 5 Oeste 0 -- -- 63
2019-02-12 06:00:00 -0.7 2 Oeste 5 Noroeste 0 -- -- 70
2019-02-12 05:00:00 -1.1 0 Calma 4 Oeste 0 -- -- 71
2019-02-12 04:00:00 -1.3 0 Calma 4 Oeste 0 -- -- 74
2019-02-12 03:00:00 -1.3 0 Calma 4 Sur 0 -- -- 90
2019-02-12 02:00:00 -0.8 0 Calma 3 Noroeste 0 -- -- 95
2019-02-12 01:00:00 -0.2 0 Calma 4 Sur 0 -- -- 93
2019-02-12 00:00:00 0.6 0 Calma 4 Oeste 0 -- -- 92
2019-02-11 23:00:00 1 2 Sur 3 Sudoeste 0 -- -- 92
2019-02-11 22:00:00 0.8 0 Calma 4 Oeste 0 -- -- 93
2019-02-11 21:00:00 0.4 3 Sudoeste 4 Sudoeste 0 -- -- 90
2019-02-11 20:00:00 1.2 0 Calma 5 Oeste 0 -- -- 86
2019-02-11 19:00:00 2.5 0 Calma 6 Sudoeste 0 -- -- 81
2019-02-11 18:00:00 4.3 3 Oeste 10 Sudoeste 0 -- -- 72
2019-02-11 17:00:00 7 0 Calma 13 Nordeste 0 -- -- 58
2019-02-11 16:00:00 8.5 5 Sudoeste 12 Sudoeste 0 -- -- 52
2019-02-11 15:00:00 8.5 5 Sudoeste 14 Sur 0 -- -- 53
2019-02-11 14:00:00 7.4 4 Sur 16 Sudeste 0 -- -- 56
2019-02-11 13:00:00 6.9 5 Este 20 Sudoeste 0 -- -- 60
2019-02-11 12:00:00 4.7 4 Este 8 Nordeste 0 -- -- 64
2019-02-11 11:00:00 1.5 3 Este 6 Este 0 -- -- 81
2019-02-11 10:00:00 -0.9 0 Calma 5 Sur 0 -- -- 85
2019-02-11 09:00:00 -1.7 0 Calma 2 Oeste 0 -- -- 88
2019-02-11 08:00:00 -1.9 0 Calma 5 Noroeste 0 -- -- 86
2019-02-11 07:00:00 -1.6 0 Calma 5 Oeste 0 -- -- 84
2019-02-11 06:00:00 -1.8 2 Noroeste 5 Noroeste 0 -- -- 89
2019-02-11 05:00:00 -1.6 0 Calma 5 Oeste 0 -- -- 88
2019-02-11 04:00:00 -1.1 2 Sudoeste 8 Sur 0 -- -- 88
2019-02-11 03:00:00 -1 3 Oeste 6 Sudoeste 0 -- -- 89
2019-02-11 02:00:00 -0.7 2 Norte 6 Oeste 0 -- -- 89
2019-02-11 01:00:00 -0.3 0 Calma 4 Norte 0 -- -- 91
2019-02-11 00:00:00 0.6 0 Calma 16 Sudoeste 0 -- -- 91
2019-02-10 23:00:00 0.3 2 Noroeste 5 Noroeste 0 -- -- 93
2019-02-10 22:00:00 0.8 3 Oeste 5 Sudoeste 0 -- -- 92
2019-02-10 21:00:00 1.4 0 Calma 7 Sudoeste 0 -- -- 89
2019-02-10 20:00:00 2.3 2 Oeste 15 Este 0 -- -- 87
2019-02-10 19:00:00 3 0 Calma 14 Oeste 0 -- -- 86
2019-02-10 18:00:00 4.5 3 Sudeste 13 Sudoeste 0 -- -- 79
2019-02-10 17:00:00 5.1 6 Sur 26 Sur 0 -- -- 74
2019-02-10 16:00:00 6.7 10 Sudoeste 33 Sudoeste 0 -- -- 69
2019-02-10 15:00:00 8.3 9 Sudoeste 29 Sur 0 -- -- 63
2019-02-10 14:00:00 8.1 13 Sudoeste 41 Sudoeste 0 -- -- 67
2019-02-10 13:00:00 8.5 11 Sudoeste 27 Noroeste 0 -- -- 69
2019-02-10 12:00:00 8 6 Sudoeste 24 Sur 0 -- -- 81
2019-02-10 11:00:00 7.3 3 Sudoeste 22 Sur 0.8 -- -- 86
2019-02-10 10:00:00 6.6 7 Sur 33 Sur 2.4 -- -- 83
2019-02-10 09:00:00 7 12 Sudeste 35 Sudoeste 0.2 -- -- 76
2019-02-10 08:00:00 6.4 11 Sudeste 32 Sur 0.6 -- -- 80
2019-02-10 07:00:00 6.5 12 Sudeste 39 Sur 2.8 -- -- 77
2019-02-10 06:00:00 6.8 13 Sudeste 34 Norte 0.6 -- -- 75
2019-02-10 05:00:00 7.2 11 Nordeste 36 Sur 0 -- -- 69
2019-02-10 04:00:00 7 12 Sudeste 37 Sudeste 0 -- -- 67
2019-02-10 03:00:00 6.8 14 Este 48 Noroeste 0 -- -- 66
2019-02-10 02:00:00 7.2 12 Noroeste 40 Noroeste 0 -- -- 63
2019-02-10 01:00:00 7.7 12 Nordeste 33 Oeste 0 -- -- 59
2019-02-10 00:00:00 7.7 14 Sur 32 Sudoeste 0 -- -- 58
2019-02-09 23:00:00 7.1 9 Sudeste 25 Noroeste 0 -- -- 63
2019-02-09 22:00:00 7.2 13 Sur 30 Sur 0 -- -- 64
2019-02-09 21:00:00 7.3 8 Sudeste 26 Sudeste 0 -- -- 64
2019-02-09 20:00:00 7.2 8 Sudeste 32 Nordeste 0 -- -- 64
2019-02-09 19:00:00 7.2 6 Oeste 22 Este 0 -- -- 63
2019-02-09 18:00:00 6.9 6 Sudeste 30 Sudeste 0 -- -- 65
2019-02-09 17:00:00 6.2 6 Este 24 Oeste 0 -- -- 70
2019-02-09 16:00:00 7.1 6 Sudeste 27 Oeste 0 -- -- 66
2019-02-09 15:00:00 8.2 12 Sur 27 Sur 0 -- -- 62
2019-02-09 14:00:00 7.9 11 Sur 32 Sur 0 -- -- 62
2019-02-09 13:00:00 7.4 11 Sur 38 Sur 0 -- -- 64
2019-02-09 12:00:00 6.5 10 Sur 28 Oeste 0 -- -- 67
2019-02-09 11:00:00 5.7 10 Sur 27 Sur 0 -- -- 69
2019-02-09 10:00:00 3.7 2 Noroeste 9 Oeste 0 -- -- 80
2019-02-09 09:00:00 3.7 4 Oeste 21 Sur 0 -- -- 81
2019-02-09 08:00:00 4.1 6 Oeste 28 Sudoeste 0 -- -- 79
2019-02-09 07:00:00 4 0 Calma 19 Sudoeste 0 -- -- 81
2019-02-09 06:00:00 3.2 2 Noroeste 5 Sudoeste 0 -- -- 85
2019-02-09 05:00:00 3.7 2 Este 10 Sudoeste 0 -- -- 82
2019-02-09 04:00:00 4.3 3 Norte 14 Oeste 0 -- -- 80
2019-02-09 03:00:00 5.7 9 Oeste 23 Oeste 0 -- -- 74
2019-02-09 02:00:00 6 8 Oeste 25 Noroeste 0 -- -- 71
2019-02-09 01:00:00 5.7 6 Sudoeste 17 Norte 0 -- -- 72
2019-02-09 00:00:00 5.8 6 Nordeste 22 Oeste 0 -- -- 72
2019-02-08 23:00:00 5.9 3 Sudeste 25 Sur 0 -- -- 70
2019-02-08 22:00:00 5.4 4 Sudeste 20 Sur 0 -- -- 72
2019-02-08 21:00:00 5.8 7 Sur 21 Sur 0 -- -- 70
2019-02-08 20:00:00 6.4 10 Sur 39 Sur 0 -- -- 66
2019-02-08 19:00:00 6.3 8 Sur 25 Sur 0 -- -- 64
2019-02-08 18:00:00 7.9 8 Sur 27 Sur 0 -- -- 50
2019-02-08 17:00:00 9.1 5 Sudeste 25 Sur 0 -- -- 48
2019-02-08 16:00:00 11.1 10 Sudoeste 37 Sur 0 -- -- 32
2019-02-08 15:00:00 11.6 13 Sur 40 Sur 0 -- -- 33
2019-02-08 14:00:00 11.9 9 Sudeste 34 Sur 0 -- -- 31
2019-02-08 13:00:00 11.5 8 Sur 33 Sudoeste 0 -- -- 38
2019-02-08 12:00:00 10.5 9 Sur 28 Sudoeste 0 -- -- 39
2019-02-08 11:00:00 7.4 3 Sudoeste 12 Noroeste 0 -- -- 48
2019-02-08 10:00:00 5.5 4 Oeste 20 Oeste 0 -- -- 58
2019-02-08 09:00:00 4.4 6 Oeste 26 Oeste 0 -- -- 58
2019-02-08 08:00:00 2.7 3 Noroeste 8 Noroeste 0 -- -- 71
2019-02-08 07:00:00 2.5 3 Sudoeste 8 Oeste 0 -- -- 77
2019-02-08 06:00:00 3.2 3 Oeste 7 Sur 0 -- -- 76
2019-02-08 05:00:00 4.3 3 Oeste 23 Sudoeste 0 -- -- 70
2019-02-08 04:00:00 3.8 4 Sur 11 Noroeste 0 -- -- 71
2019-02-08 03:00:00 4.5 5 Sudoeste 17 Sudoeste 0 -- -- 65
2019-02-08 02:00:00 4.5 6 Noroeste 25 Sudoeste 0 -- -- 67
2019-02-08 01:00:00 4.7 4 Oeste 20 Sudoeste 0 -- -- 67
2019-02-08 00:00:00 7 12 Sudoeste 37 Sudoeste 0 -- -- 59
2019-02-07 23:00:00 1.4 3 Sudoeste 9 Noroeste 0 -- -- 91
2019-02-07 22:00:00 1.4 2 Noroeste 5 Oeste 0 -- -- 95
2019-02-07 21:00:00 2.1 2 Sudoeste 6 Oeste 0 -- -- 94
2019-02-07 20:00:00 2.7 0 Calma 2 Oeste 0 -- -- 92
2019-02-07 19:00:00 3.7 0 Calma 4 Sudoeste 0 -- -- 91
2019-02-07 18:00:00 5 2 Oeste 8 Sudoeste 0 -- -- 86
2019-02-07 17:00:00 6.7 7 Sudoeste 15 Sudoeste 0 -- -- 80
2019-02-07 16:00:00 9.6 3 Oeste 16 Sudoeste 0 -- -- 63
2019-02-07 15:00:00 9.1 7 Sudeste 25 Sur 0 -- -- 50
2019-02-07 14:00:00 9.5 7 Sur 28 Sur 0 -- -- 53
2019-02-07 13:00:00 9 11 Sudoeste 26 Oeste 0 -- -- 50
2019-02-07 12:00:00 8 7 Sur 21 Sur 0 -- -- 61
2019-02-07 11:00:00 3.8 0 Calma 3 Oeste 0 -- -- 88
2019-02-07 10:00:00 2.7 0 Calma 4 Sudoeste 0 -- -- 92
2019-02-07 09:00:00 2.2 3 Oeste 12 Este 0 -- -- 91
2019-02-07 08:00:00 2.5 7 Oeste 20 Este 0 -- -- 88
2019-02-07 07:00:00 2 3 Sudoeste 6 Sur 0 -- -- 91
2019-02-07 06:00:00 2.1 3 Sudoeste 5 Este 0 -- -- 89
2019-02-07 05:00:00 2.3 2 Oeste 5 Noroeste 0 -- -- 87
2019-02-07 04:00:00 2.8 0 Calma 5 Oeste 0 -- -- 85
2019-02-07 03:00:00 2.9 2 Oeste 6 Oeste 0 -- -- 83
2019-02-07 02:00:00 3.3 0 Calma 6 Oeste 0 -- -- 80
2019-02-07 01:00:00 3.7 3 Sudoeste 6 Noroeste 0 -- -- 78
2019-02-07 00:00:00 4 2 Oeste 9 Sur 0 -- -- 77
2019-02-06 23:00:00 4 2 Sur 6 Sur 0 -- -- 77
2019-02-06 22:00:00 5.5 3 Sudoeste 15 Oeste 0 -- -- 69
2019-02-06 21:00:00 6.6 6 Oeste 18 Sudoeste 0 -- -- 66
2019-02-06 20:00:00 7.6 5 Oeste 21 Oeste 0 -- -- 64
2019-02-06 19:00:00 7.6 6 Sur 23 Oeste 0 -- -- 64
2019-02-06 18:00:00 8.5 6 Sudoeste 27 Noroeste 0 -- -- 59
2019-02-06 17:00:00 9.1 8 Sur 31 Sur 0 -- -- 56
2019-02-06 16:00:00 10.4 4 Noroeste 29 Sudoeste 0 -- -- 53
2019-02-06 15:00:00 11.8 12 Sur 33 Sudoeste 0 -- -- 48
2019-02-06 14:00:00 11.4 8 Sudeste 28 Sur 0 -- -- 45
2019-02-06 13:00:00 11 5 Este 28 Sur 0 -- -- 55
2019-02-06 12:00:00 8.4 5 Sudoeste 13 Sudoeste 0 -- -- 60
2019-02-06 11:00:00 6.6 0 Calma 5 Oeste 0 -- -- 72
2019-02-06 10:00:00 4.7 2 Norte 7 Noroeste 0 -- -- 79
2019-02-06 09:00:00 3.1 0 Calma 4 Oeste 0 -- -- 86
2019-02-06 08:00:00 2.4 0 Calma 4 Oeste 0 -- -- 88
2019-02-06 07:00:00 2.4 0 Calma 5 Oeste 0 -- -- 87
2019-02-06 06:00:00 2.3 0 Calma 6 Noroeste 0 -- -- 88
2019-02-06 05:00:00 2.3 2 Sudoeste 5 Oeste 0 -- -- 88
2019-02-06 04:00:00 2.3 0 Calma 5 Oeste 0 -- -- 88
2019-02-06 03:00:00 2.4 2 Oeste 4 Oeste 0 -- -- 90
2019-02-06 02:00:00 2.2 0 Calma 5 Sudoeste 0 -- -- 89
2019-02-06 01:00:00 2.3 2 Oeste 5 Oeste 0 -- -- 89
2019-02-06 00:00:00 1.9 0 Calma 6 Oeste 0 -- -- 91
2019-02-05 23:00:00 1.8 0 Calma 4 Noroeste 0 -- -- 91
2019-02-05 22:00:00 2.2 2 Oeste 5 Oeste 0 -- -- 95
2019-02-05 21:00:00 2.3 0 Calma 5 Oeste 0 -- -- 93
2019-02-05 20:00:00 2.6 0 Calma 5 Oeste 0 -- -- 92
2019-02-05 19:00:00 3 0 Calma 5 Oeste 0 -- -- 90
2019-02-05 18:00:00 4.1 0 Calma 4 Oeste 0 -- -- 85
2019-02-05 17:00:00 7 3 Sudoeste 9 Oeste 0 -- -- 77
2019-02-05 16:00:00 11.5 3 Noroeste 8 Noroeste 0 -- -- 56
2019-02-05 15:00:00 11.8 3 Norte 6 Este 0 -- -- 55
2019-02-05 14:00:00 11.9 3 Noroeste 6 Oeste 0 -- -- 57
2019-02-05 13:00:00 10.7 0 Calma 6 Este 0 -- -- 64
2019-02-05 12:00:00 7.6 2 Nordeste 6 Nordeste 0.4 -- -- 78
2019-02-05 11:00:00 3.5 0 Calma 3 Noroeste 0 -- -- 98
2019-02-05 10:00:00 2.3 0 Calma 2 Noroeste 0 -- -- 100
2019-02-05 09:00:00 1.3 0 Calma 5 Noroeste 0 -- -- 100
2019-02-05 08:00:00 1.3 0 Calma 4 Oeste 0 -- -- 99
2019-02-05 07:00:00 1.4 0 Calma 4 Oeste 0 -- -- 99
2019-02-05 06:00:00 1.5 0 Calma 6 Sudoeste 0 -- -- 99
2019-02-05 05:00:00 1.6 3 Oeste 10 Oeste 0 -- -- 100
2019-02-05 04:00:00 1.6 4 Oeste 9 Noroeste 0 -- -- 99
2019-02-05 03:00:00 2.2 2 Sudoeste 6 Oeste 0 -- -- 100
2019-02-05 02:00:00 2.3 0 Calma 5 Sur 0 -- -- 99
2019-02-05 01:00:00 2.7 0 Calma 4 Oeste -- -- -- 100
2019-02-05 00:00:00 2.8 0 Calma 5 Oeste -- -- -- 100
2019-02-04 23:00:00 3.1 2 Oeste 6 Noroeste -- -- -- 100
2019-02-04 22:00:00 3 2 Oeste 6 Noroeste -- -- -- 99
2019-02-04 21:00:00 3.3 3 Sudoeste 5 Sudoeste -- -- -- 99
2019-02-04 20:00:00 3.1 0 Calma 6 Oeste -- -- -- 97
2019-02-04 19:00:00 3.4 2 Sudoeste 8 Sudoeste -- -- -- 93
2019-02-04 18:00:00 4.3 2 Sudoeste 6 Noroeste -- -- -- 87
2019-02-04 17:00:00 5.7 3 Oeste 6 Noroeste -- -- -- 83
2019-02-04 16:00:00 6.4 2 Oeste 15 Sur -- -- -- 80
2019-02-04 15:00:00 8.5 3 Oeste 17 Sudoeste -- -- -- 70
2019-02-04 14:00:00 9.4 5 Norte 17 Sudoeste -- -- -- 67
2019-02-04 13:00:00 8.6 4 Noroeste 8 Noroeste -- -- -- 66
2019-02-04 12:00:00 7.6 4 Noroeste 23 Norte -- -- -- 66
2019-02-04 11:00:00 5.5 5 Este 15 Noroeste -- -- -- 71
2019-02-04 10:00:00 3.8 4 Sudoeste 17 Sur 0 -- -- 71
2019-02-04 09:00:00 1.1 4 Sur 12 Sudeste 0 -- -- 73
2019-02-04 08:00:00 3.4 3 Noroeste 35 Sudoeste 0 -- -- 51
2019-02-04 07:00:00 -0.7 3 Oeste 14 Noroeste 0 -- -- 72
2019-02-04 06:00:00 -0.5 3 Noroeste 12 Noroeste 0 -- -- 73
2019-02-04 05:00:00 -2.4 2 Noroeste 8 Oeste 0 -- -- 84
2019-02-04 04:00:00 -3 3 Este 15 Oeste 0 -- -- 86
2019-02-04 03:00:00 -3.7 2 Noroeste 6 Sudoeste 0 -- -- 83
2019-02-04 02:00:00 -3.7 2 Noroeste 6 Oeste 0 -- -- 86
2019-02-04 01:00:00 -3.7 3 Sudoeste 6 Sudoeste 0 -- -- 87
2019-02-04 00:00:00 -4.1 2 Sudoeste 4 Norte 0 -- -- 88
2019-02-03 23:00:00 -4.4 0 Calma 5 Oeste 0 -- -- 90
2019-02-03 22:00:00 -4.2 2 Oeste 5 Oeste 0 -- -- 91
2019-02-03 21:00:00 -3.9 0 Calma 4 Sudoeste 0.2 -- -- 91
2019-02-03 20:00:00 -3.3 2 Sudoeste 5 Noroeste 0 -- -- 90
2019-02-03 19:00:00 -2.4 0 Calma 5 Sur 0.2 -- -- 89
2019-02-03 18:00:00 -1 0 Calma 5 Sur 0.6 -- -- 84
2019-02-03 17:00:00 1.7 2 Sur 6 Sur 2.8 -- -- 69
2019-02-03 16:00:00 4.4 3 Sur 15 Este 5.6 -- -- 60
2019-02-03 15:00:00 3 7 Este 24 Este 7.4 -- -- 62
2019-02-03 14:00:00 5.4 2 Noroeste 8 Noroeste 3.4 -- -- 54
2019-02-03 13:00:00 4 2 Norte 9 Este 2.2 -- -- 62
2019-02-03 12:00:00 -0.6 2 Nordeste 6 Sudoeste 0 -- -- 79
2019-02-03 11:00:00 -3.7 0 Calma 4 Oeste 0 -- -- 91
2019-02-03 10:00:00 -5.4 0 Calma 5 Sudoeste 0 -- -- 91
2019-02-03 09:00:00 -5.6 0 Calma 12 Sur 0 -- -- 91
2019-02-03 08:00:00 -4.8 2 Sur 7 Sur 0 -- -- 92
2019-02-03 07:00:00 -3.9 0 Calma 6 Sudoeste 0 -- -- 93
2019-02-03 06:00:00 -4.2 3 Sudoeste 10 Sudoeste 0 -- -- 92
2019-02-03 05:00:00 -3.8 2 Sudoeste 5 Sudoeste 0 -- -- 92
2019-02-03 04:00:00 -2.9 4 Sudoeste 10 Sudoeste 0 -- -- 91
2019-02-03 03:00:00 -2.6 3 Oeste 15 Noroeste 0 -- -- 88
2019-02-03 02:00:00 -2.5 3 Este 32 Noroeste 0 -- -- 91
2019-02-03 01:00:00 -2.4 5 Noroeste 25 Noroeste 0 -- -- 90
2019-02-03 00:00:00 -2.5 3 Norte 20 Noroeste 0 -- -- 94
2019-02-02 23:00:00 -1.8 9 Noroeste 28 Noroeste 0 -- -- 80
2019-02-02 22:00:00 -2.6 3 Norte 6 Norte 0.2 -- -- 98
2019-02-02 21:00:00 -2.3 0 Calma 14 Noroeste 0 -- -- 95
2019-02-02 20:00:00 -1.7 9 Norte 31 Noroeste 0 -- -- 91
2019-02-02 19:00:00 -1.6 6 Norte 37 Noroeste 0 -- -- 93
2019-02-02 18:00:00 -2.1 2 Norte 7 Norte 0 -- -- 96
2019-02-02 17:00:00 -1.5 3 Nordeste 24 Noroeste 0.4 -- -- 89
2019-02-02 16:00:00 -1 6 Norte 32 Norte 0.4 -- -- 88
2019-02-02 15:00:00 -1.1 4 Norte 10 Norte 0.2 -- -- 89
2019-02-02 14:00:00 -0.7 0 Calma 7 Norte 0 -- -- 96
2019-02-02 13:00:00 -2.2 0 Calma -- -- 0 -- -- 99
2019-02-02 12:00:00 -2.5 0 Calma 5 Este 0 -- -- 97
2019-02-02 11:00:00 -2.4 2 Sur 18 Este 0 -- -- 94
2019-02-02 10:00:00 -2.1 0 Calma 33 Noroeste 0 -- -- 94
2019-02-02 09:00:00 -2.2 6 Norte 42 Norte 0 -- -- 98
2019-02-02 08:00:00 -2 16 Noroeste 45 Noroeste 0 -- -- 98
2019-02-02 07:00:00 -2 12 Norte 49 Norte 0 -- -- 94
2019-02-02 06:00:00 -1.6 11 Norte 37 Norte 0 -- -- 90
2019-02-02 05:00:00 -1.3 0 Calma 36 Norte 0 -- -- 96
2019-02-02 04:00:00 -1.1 2 Norte 23 Norte 0 -- -- 97
2019-02-02 03:00:00 -1 4 Norte 17 Norte 0 -- -- 97
2019-02-02 02:00:00 -0.8 4 Norte 27 Norte 0 -- -- 93
2019-02-02 01:00:00 -0.6 4 Norte 24 Norte 0 -- -- 96
2019-02-02 00:00:00 0 4 Nordeste 38 Norte 0 -- -- 96
2019-02-01 23:00:00 0.5 7 Norte 33 Norte 0 -- -- 94
2019-02-01 22:00:00 0.1 4 Norte 24 Norte 0 -- -- 99
2019-02-01 21:00:00 -0.6 3 Este 7 Noroeste 0 -- -- 99
2019-02-01 20:00:00 -0.9 3 Noroeste 13 Sudeste 0 -- -- 97
2019-02-01 19:00:00 -0.1 5 Sudeste 26 Sudoeste 0 -- -- 90
2019-02-01 18:00:00 1.9 5 Noroeste 18 Sudoeste 0 -- -- 63
2019-02-01 17:00:00 2.1 5 Sur 23 Noroeste 0.2 -- -- 67
2019-02-01 16:00:00 2 4 Sudeste 26 Sudoeste 0.6 -- -- 68
2019-02-01 15:00:00 1.4 7 Sur 19 Sur 0.4 -- -- 74
2019-02-01 14:00:00 0.7 3 Noroeste 13 Sur 0 -- -- 92
2019-02-01 13:00:00 2.3 5 Este 18 Sudeste 0.2 -- -- 73
2019-02-01 12:00:00 2.3 4 Sudeste 14 Sudeste 0.6 -- -- 79
2019-02-01 11:00:00 0.7 5 Norte 22 Este 0 -- -- 92
2019-02-01 10:00:00 1.2 6 Este 33 Noroeste 0 -- -- 78
2019-02-01 09:00:00 2.2 10 Este 30 Este 0 -- -- 61
2019-02-01 08:00:00 2.7 10 Este 37 Sur 0 -- -- 60
2019-02-01 07:00:00 2.5 13 Sur 40 Sudeste 0 -- -- 66
2019-02-01 06:00:00 2.7 10 Sudeste 58 Este 0 -- -- 61
2019-02-01 05:00:00 3.4 11 Sudeste 35 Este 0 -- -- 70
2019-02-01 04:00:00 3.8 11 Sudeste 32 Sur 0 -- -- 68
2019-02-01 03:00:00 4.2 6 Sudeste 22 Este 0 -- -- 70
2019-02-01 02:00:00 3.6 3 Este 16 Este 0 -- -- 76
2019-02-01 01:00:00 3.3 2 Sudeste 21 Sudeste 0 -- -- 81
2019-02-01 00:00:00 4.6 9 Sur 22 Sur 0 -- -- 74
2019-01-31 23:00:00 5.8 5 Sur 18 Sur 0 -- -- 67
2019-01-31 22:00:00 5.9 4 Sur 14 Sudeste 0 -- -- 76
2019-01-31 21:00:00 6.2 8 Sudeste 20 Sudoeste 0 -- -- 85
2019-01-31 20:00:00 4.5 3 Sudoeste 12 Este 0.4 -- -- 98
2019-01-31 19:00:00 4.9 2 Sudoeste 15 Sur 2.6 -- -- 95
2019-01-31 18:00:00 7.6 10 Sur 41 Sudoeste 4.4 -- -- 85
2019-01-31 17:00:00 8.1 6 Sudeste 33 Sudoeste 1.6 -- -- 89
2019-01-31 16:00:00 9.3 9 Sur 27 Sur 0.2 -- -- 77
2019-01-31 15:00:00 9.7 6 Sur 34 Sur 0 -- -- 71
2019-01-31 14:00:00 8.9 9 Sudeste 25 Oeste 0 -- -- 77
2019-01-31 13:00:00 8.5 10 Sudeste 29 Sudeste 0.2 -- -- 79
2019-01-31 12:00:00 8 10 Sur 28 Sudoeste 0.4 -- -- 83
2019-01-31 11:00:00 6.3 6 Sudoeste 17 Sur 1.6 -- -- 96
2019-01-31 10:00:00 4.7 4 Sudoeste 14 Oeste 1.8 -- -- 100
2019-01-31 09:00:00 3.5 3 Sur 12 Sur 2.4 -- -- 100
2019-01-31 08:00:00 3.2 3 Sudoeste 10 Oeste 3.4 -- -- 100
2019-01-31 07:00:00 4 5 Sudoeste 27 Sur 4.4 -- -- 99
2019-01-31 06:00:00 2.9 3 Oeste 9 Oeste 4.4 -- -- 100
2019-01-31 05:00:00 2.5 3 Noroeste 7 Oeste 4.2 -- -- 100
2019-01-31 04:00:00 2.4 3 Sudoeste 8 Sur 3.8 -- -- 100
2019-01-31 03:00:00 1.9 3 Oeste 8 Noroeste 3.4 -- -- 100
2019-01-31 02:00:00 1.4 3 Sudoeste 8 Noroeste 3.8 -- -- 100
2019-01-31 01:00:00 0.9 2 Oeste 8 Sudoeste 3.2 -- -- 100
2019-01-31 00:00:00 0.6 2 Oeste 8 Nordeste 3.4 -- -- 100
2019-01-30 23:00:00 0.3 0 Calma 4 Sur 3.8 -- -- 100
2019-01-30 22:00:00 0.2 0 Calma 4 Oeste 1.4 -- -- 100
2019-01-30 21:00:00 0.1 0 Calma 4 Oeste 0.4 -- -- 99
2019-01-30 20:00:00 0.2 0 Calma 5 Oeste 0.8 -- -- 99
2019-01-30 19:00:00 0.6 3 Oeste 15 Oeste 1 -- -- 97
2019-01-30 18:00:00 0.5 3 Oeste 12 Nordeste 0 -- -- 97
2019-01-30 17:00:00 1.2 4 Noroeste 17 Oeste 0.4 -- -- 92
2019-01-30 16:00:00 1.8 5 Sudoeste 21 Oeste 0.6 -- -- 87
2019-01-30 15:00:00 2.8 8 Sudeste 28 Sur 0.6 -- -- 73
2019-01-30 14:00:00 5.1 13 Sudoeste 30 Sudoeste 1.8 -- -- 46
2019-01-30 13:00:00 3.8 12 Sudoeste 28 Sur 1.6 -- -- 47
2019-01-30 12:00:00 3.6 7 Sudeste 28 Noroeste 0.8 -- -- 49
2019-01-30 11:00:00 2.1 6 Nordeste 28 Norte 0 -- -- 56
2019-01-30 10:00:00 1.6 8 Oeste 26 Noroeste 0 -- -- 54
2019-01-30 09:00:00 0.8 7 Sudoeste 24 Sudoeste 0 -- -- 66
2019-01-30 08:00:00 0.8 11 Oeste 26 Noroeste 0 -- -- 65
2019-01-30 07:00:00 0.3 6 Oeste 29 Oeste 0 -- -- 75
2019-01-30 06:00:00 0.5 9 Oeste 29 Noroeste 0 -- -- 69
2019-01-30 05:00:00 0.5 7 Sudoeste 22 Sudoeste 0 -- -- 79
2019-01-30 04:00:00 0.6 7 Sudoeste 26 Sur 0 -- -- 73
2019-01-30 03:00:00 0.7 5 Oeste 18 Noroeste 0 -- -- 80
2019-01-30 02:00:00 0.8 7 Sur 28 Sudoeste 0 -- -- 82
2019-01-30 01:00:00 1.1 5 Oeste 31 Oeste 0 -- -- 80
2019-01-30 00:00:00 1.1 8 Oeste 31 Noroeste 0.2 -- -- 72
2019-01-29 23:00:00 0.7 9 Noroeste 32 Noroeste 0 -- -- 72
2019-01-29 22:00:00 -0.2 6 Sudoeste 20 Sudoeste 0 -- -- 91
2019-01-29 21:00:00 0.5 6 Norte 19 Norte 0 -- -- 88
2019-01-29 20:00:00 0.6 4 Sur 15 Sur 0 -- -- 95
2019-01-29 19:00:00 0.4 3 Oeste 9 Oeste 0 -- -- 97
2019-01-29 18:00:00 1.3 4 Sudeste 22 Este 0.4 -- -- 88
2019-01-29 17:00:00 2.3 4 Sur 31 Noroeste 0.4 -- -- 89
2019-01-29 16:00:00 3 10 Norte 36 Norte 2.8 -- -- 80
2019-01-29 15:00:00 4.5 9 Oeste 41 Noroeste 1.2 -- -- 76
2019-01-29 14:00:00 3.4 4 Sur 14 Sur 2.8 -- -- 96
2019-01-29 13:00:00 2.9 3 Oeste 15 Sudoeste 3 -- -- 96
2019-01-29 12:00:00 3.5 7 Sur 21 Sudoeste 1.6 -- -- 91
2019-01-29 11:00:00 5.1 4 Sudeste 19 Sudoeste 0.4 -- -- 78
2019-01-29 10:00:00 4.6 6 Sudeste 25 Sur 0 -- -- 75
2019-01-29 09:00:00 3.3 8 Sur 25 Sur 0 -- -- 87
2019-01-29 08:00:00 1.6 3 Oeste 9 Noroeste 0.2 -- -- 99
2019-01-29 07:00:00 1.4 2 Sudoeste 13 Oeste 0.8 -- -- 95
2019-01-29 06:00:00 2.2 6 Sudoeste 26 Sudoeste 0.2 -- -- 87
2019-01-29 05:00:00 3.4 12 Sudoeste 35 Oeste 0 -- -- 69
2019-01-29 04:00:00 2.3 4 Noroeste 22 Noroeste 0 -- -- 72
2019-01-29 03:00:00 2.9 12 Oeste 30 Sudoeste 0 -- -- 69
2019-01-29 02:00:00 0 3 Norte 12 Noroeste 0 -- -- 87
2019-01-29 01:00:00 0.5 2 Sudoeste 14 Sur 0 -- -- 83
2019-01-29 00:00:00 1 3 Norte 14 Sur 0 -- -- 77
2019-01-28 23:00:00 2.9 4 Sur 26 Sudoeste 0 -- -- 68
2019-01-28 22:00:00 4 8 Oeste 36 Oeste 0 -- -- 48
2019-01-28 21:00:00 3.8 10 Noroeste 32 Noroeste 0 -- -- 54
2019-01-28 20:00:00 3.8 8 Norte 33 Noroeste 0 -- -- 61
2019-01-28 19:00:00 4 6 Nordeste 34 Norte 0 -- -- 66
2019-01-28 18:00:00 4.3 7 Norte 36 Noroeste 0 -- -- 67
2019-01-28 17:00:00 4.7 8 Norte 50 Noroeste 0 -- -- 68
2019-01-28 16:00:00 4.9 15 Norte 49 Noroeste 0.2 -- -- 68
2019-01-28 15:00:00 5.3 14 Norte 55 Noroeste 0 -- -- 66
2019-01-28 14:00:00 5.5 21 Noroeste 53 Noroeste 0.4 -- -- 69
2019-01-28 13:00:00 5.5 14 Noroeste 34 Norte 0.6 -- -- 71
2019-01-28 12:00:00 4.2 5 Sudoeste 26 Oeste 2 -- -- 88
2019-01-28 11:00:00 3.2 6 Sudoeste 15 Este 2.6 -- -- 95
2019-01-28 10:00:00 2.8 3 Oeste 15 Sur 2.6 -- -- 96
2019-01-28 09:00:00 2.2 4 Oeste 21 Noroeste 1.8 -- -- 95
2019-01-28 08:00:00 2.4 6 Sudeste 17 Nordeste 2 -- -- 96
2019-01-28 07:00:00 2.6 4 Sudeste 22 Sudeste 2 -- -- 93
2019-01-28 06:00:00 1.6 3 Oeste 16 Sur 2 -- -- 99
2019-01-28 05:00:00 1.2 2 Sudoeste 13 Nordeste 2.4 -- -- 99
2019-01-28 04:00:00 0.6 2 Oeste 7 Sur 2.4 -- -- 100
2019-01-28 03:00:00 0.4 3 Noroeste 9 Sudoeste 0.4 -- -- 99
2019-01-28 02:00:00 0.4 2 Sudoeste 14 Sudoeste 0 -- -- 98
2019-01-28 01:00:00 0.4 2 Oeste 16 Sur 0 -- -- 96
2019-01-28 00:00:00 1.1 8 Sur 19 Sudoeste 0 -- -- 85
2019-01-27 23:00:00 1.6 6 Oeste 36 Norte 0 -- -- 79
2019-01-27 22:00:00 1.6 7 Sudoeste 25 Sur 0 -- -- 79
2019-01-27 21:00:00 2.8 6 Noroeste 38 Noroeste 0 -- -- 63
2019-01-27 20:00:00 3.2 12 Noroeste 38 Noroeste 0 -- -- 65
2019-01-27 19:00:00 3.3 18 Noroeste 50 Noroeste 0 -- -- 67
2019-01-27 18:00:00 3.3 11 Norte 39 Noroeste 0 -- -- 66
2019-01-27 17:00:00 3.7 16 Norte 53 Norte 0 -- -- 55
2019-01-27 16:00:00 4.2 14 Norte 59 Noroeste 0.8 -- -- 60
2019-01-27 15:00:00 3.3 23 Noroeste 50 Noroeste 2.4 -- -- 68
2019-01-27 14:00:00 2 9 Norte 37 Norte 1.2 -- -- 83
2019-01-27 13:00:00 0.7 4 Nordeste 22 Norte 0.4 -- -- 95
2019-01-27 12:00:00 2.1 7 Este 51 Noroeste 1.4 -- -- 77
2019-01-27 11:00:00 1.2 4 Este 32 Noroeste 0.8 -- -- 91
2019-01-27 10:00:00 2.2 13 Noroeste 40 Noroeste 0.2 -- -- 80
2019-01-27 09:00:00 1 6 Nordeste 21 Noroeste 0 -- -- 92
2019-01-27 08:00:00 1.6 10 Sudoeste 32 Sudoeste 0.2 -- -- 82
2019-01-27 07:00:00 2.1 7 Sudoeste 27 Sudoeste 0.4 -- -- 81
2019-01-27 06:00:00 3.2 5 Sudeste 26 Sudoeste 0 -- -- 75
2019-01-27 05:00:00 4.2 9 Nordeste 29 Norte 0.2 -- -- 68
2019-01-27 04:00:00 4.5 11 Sudoeste 38 Norte 0.6 -- -- 79
2019-01-27 03:00:00 5 9 Sur 30 Sur 0.4 -- -- 83
2019-01-27 02:00:00 6.4 10 Sur 27 Sur 0 -- -- 71
2019-01-27 01:00:00 7.7 10 Sudeste 33 Sudoeste 0 -- -- 55
2019-01-27 00:00:00 6.9 8 Noroeste 34 Noroeste 0 -- -- 51
2019-01-26 23:00:00 4.6 4 Oeste 19 Sudoeste 0 -- -- 56
2019-01-26 22:00:00 6.4 7 Sudoeste 24 Noroeste 0 -- -- 51
2019-01-26 21:00:00 7.1 6 Oeste 28 Noroeste 0 -- -- 38
2019-01-26 20:00:00 5.1 5 Sudoeste 14 Oeste 0 -- -- 52
2019-01-26 19:00:00 8.3 9 Sudoeste 21 Sudoeste 0 -- -- 41
2019-01-26 18:00:00 8 4 Sudeste 18 Noroeste 0 -- -- 44
2019-01-26 17:00:00 8.3 3 Oeste 11 Oeste 0 -- -- 44
2019-01-26 16:00:00 11.2 3 Sudoeste 10 Sudoeste 0 -- -- 36
2019-01-26 15:00:00 14.1 4 Noroeste 12 Sur 0 -- -- 31
2019-01-26 14:00:00 13.9 3 Noroeste 6 Noroeste 0 -- -- 33
2019-01-26 13:00:00 11 0 Calma 5 Noroeste 0 -- -- 43
2019-01-26 12:00:00 6.8 2 Este 4 Nordeste 0 -- -- 60
2019-01-26 11:00:00 3.1 0 Calma 5 Noroeste 0 -- -- 69
2019-01-26 10:00:00 1.1 3 Noroeste 5 Noroeste 0 -- -- 78
2019-01-26 09:00:00 -0.4 0 Calma 4 Oeste 0 -- -- 85
2019-01-26 08:00:00 -1.3 0 Calma 4 Noroeste 0 -- -- 93
2019-01-26 07:00:00 -1.6 0 Calma 4 Noroeste 0 -- -- 99
2019-01-26 06:00:00 -1.4 0 Calma 4 Sudoeste 0 -- -- 99
2019-01-26 05:00:00 -1.2 0 Calma 2 Oeste 0 -- -- 99
2019-01-26 04:00:00 -0.8 0 Calma 3 Oeste 0 -- -- 98
2019-01-26 03:00:00 -0.1 0 Calma 3 Sur 0 -- -- 98
2019-01-26 02:00:00 0.4 0 Calma 3 Sur 0 -- -- 98
2019-01-26 01:00:00 0.4 0 Calma 2 Noroeste 0 -- -- 99
2019-01-26 00:00:00 -0.1 0 Calma 3 Oeste 0 -- -- 98
2019-01-25 23:00:00 0 0 Calma 3 Noroeste 0 -- -- 97
2019-01-25 22:00:00 0.4 0 Calma 4 Sudoeste 0 -- -- 95
2019-01-25 21:00:00 1 0 Calma 4 Noroeste 0 -- -- 93
2019-01-25 20:00:00 1.8 0 Calma 3 Oeste 0 -- -- 91
2019-01-25 19:00:00 3 0 Calma 6 Noroeste 0 -- -- 86
2019-01-25 18:00:00 4.2 0 Calma 12 Sudoeste 0 -- -- 82
2019-01-25 17:00:00 4.9 2 Sudoeste 9 Sudoeste 0 -- -- 78
2019-01-25 16:00:00 8 4 Sudoeste 15 Sudoeste 0.2 -- -- 64
2019-01-25 15:00:00 10.3 4 Sudoeste 14 Sudoeste 0 -- -- 55
2019-01-25 14:00:00 9.3 8 Sudoeste 22 Sudoeste 0 -- -- 59
2019-01-25 13:00:00 8 4 Noroeste 28 Sudoeste 0 -- -- 64
2019-01-25 12:00:00 6.3 8 Sudoeste 26 Sudoeste 0 -- -- 73
2019-01-25 11:00:00 3.7 2 Noroeste 7 Noroeste 0 -- -- 87
2019-01-25 10:00:00 2 0 Calma 6 Noroeste 0 -- -- 95
2019-01-25 09:00:00 1.1 3 Sudoeste 6 Oeste 0 -- -- 96
2019-01-25 08:00:00 1.2 0 Calma 7 Oeste 0 -- -- 96
2019-01-25 07:00:00 1.3 0 Calma 8 Sudoeste 0 -- -- 96
2019-01-25 06:00:00 1.5 3 Oeste 6 Sudoeste 0 -- -- 95
2019-01-25 05:00:00 1.7 2 Oeste 8 Oeste 0 -- -- 95
2019-01-25 04:00:00 2 3 Oeste 12 Noroeste 0 -- -- 94
2019-01-25 03:00:00 2.5 3 Sudoeste 10 Noroeste 0 -- -- 92
2019-01-25 02:00:00 3.1 6 Oeste 19 Sur 0 -- -- 91
2019-01-25 01:00:00 3 4 Sudoeste 12 Sudoeste 0 -- -- 91
2019-01-25 00:00:00 5.1 5 Sudeste 23 Norte 0 -- -- 81
2019-01-24 23:00:00 5.5 6 Noroeste 17 Sudoeste 0 -- -- 83
2019-01-24 22:00:00 4.7 4 Sudoeste 17 Sur 0 -- -- 89
2019-01-24 21:00:00 4.7 7 Sur 26 Sudoeste 0.2 -- -- 89
2019-01-24 20:00:00 6.8 8 Norte 29 Oeste 0.2 -- -- 80
2019-01-24 19:00:00 6.3 10 Noroeste 35 Noroeste 0.2 -- -- 83
2019-01-24 18:00:00 7.3 15 Noroeste 38 Noroeste 0.6 -- -- 78
2019-01-24 17:00:00 7.8 15 Noroeste 40 Norte 1.6 -- -- 74
2019-01-24 16:00:00 8.1 20 Noroeste 46 Noroeste 3.6 -- -- 74
2019-01-24 15:00:00 8 10 Noroeste 28 Noroeste 4.4 -- -- 79
2019-01-24 14:00:00 6.9 7 Norte 24 Norte 5.2 -- -- 85
2019-01-24 13:00:00 6.2 5 Noroeste 17 Noroeste 5.4 -- -- 94
2019-01-24 12:00:00 3.9 3 Oeste 24 Este 6.6 -- -- 100
2019-01-24 11:00:00 3.2 0 Calma 8 Oeste 6.6 -- -- 100
2019-01-24 10:00:00 3.2 3 Nordeste 19 Noroeste 6 -- -- 100
2019-01-24 09:00:00 3.1 2 Oeste 12 Sur 5.4 -- -- 100
2019-01-24 08:00:00 2.9 3 Noroeste 9 Noroeste 5.6 -- -- 100
2019-01-24 07:00:00 2.7 2 Sudoeste 9 Este 6.8 -- -- 100
2019-01-24 06:00:00 2.2 4 Sudoeste 9 Oeste 10 -- -- 100
2019-01-24 05:00:00 2.2 3 Oeste 9 Noroeste 8.2 -- -- 100
2019-01-24 04:00:00 2.8 5 Noroeste 23 Nordeste 9.6 -- -- 100
2019-01-24 03:00:00 2.4 4 Noroeste 10 Oeste 8.4 -- -- 100
2019-01-24 02:00:00 2.5 3 Oeste 11 Sudoeste 9 -- -- 100
2019-01-24 01:00:00 2.3 4 Sudoeste 10 Oeste 7.6 -- -- 100
2019-01-24 00:00:00 2.2 3 Noroeste 9 Oeste 6.6 -- -- 100